Time;durP1;ratioP1;P1;durP2;ratioP2;P2;SDS_P1;SDS_P2;PMS_P1;PMS_P2;Temp;Humidity;BMP_temperature;BMP_pressure;BME280_temperature;BME280_humidity;BME280_pressure;Samples;Min_cycle;Max_cycle;Signal;HPM_P1;HPM_P2
2022/11/02 00:01:23;;;;;;;8.90;4.90;;;;;;;15.87;59.46;100105.03;4451352;32;31993;-64
2022/11/02 00:03:51;;;;;;;5.00;3.67;;;;;;;15.85;59.47;100107.00;4438294;32;33796;-66
2022/11/02 00:06:18;;;;;;;5.37;3.95;;;;;;;15.87;59.67;100107.72;4450792;32;32670;-65
2022/11/02 00:08:46;;;;;;;8.02;5.18;;;;;;;15.91;59.38;100109.16;4447559;32;34086;-65
2022/11/02 00:11:14;;;;;;;6.95;4.00;;;;;;;15.99;59.02;100109.31;4450249;32;33565;-65
2022/11/02 00:13:41;;;;;;;11.20;4.00;;;;;;;16.02;58.90;100111.75;4450817;32;33820;-66
2022/11/02 00:16:13;;;;;;;4.20;3.03;;;;;;;16.03;58.90;100107.19;4451548;32;35394;-63
2022/11/02 00:18:42;;;;;;;11.38;4.80;;;;;;;16.03;58.94;100110.72;4451410;32;32739;-65
2022/11/02 00:21:10;;;;;;;5.28;3.97;;;;;;;16.15;58.56;100113.31;4445071;32;32396;-64
2022/11/02 00:23:39;;;;;;;8.77;4.80;;;;;;;16.08;58.53;100113.00;4429091;32;32637;-63
2022/11/02 00:26:07;;;;;;;9.90;6.05;;;;;;;16.10;58.53;100107.47;4450013;32;33831;-65
2022/11/02 00:28:34;;;;;;;12.63;5.70;;;;;;;16.12;58.54;100105.50;4449471;32;32947;-65
2022/11/02 00:31:01;;;;;;;12.63;6.12;;;;;;;16.12;58.27;100110.91;4446832;32;33925;-68
2022/11/02 00:33:29;;;;;;;9.23;5.05;;;;;;;15.94;58.71;100113.41;4450860;32;34760;-65
2022/11/02 00:35:57;;;;;;;7.57;4.78;;;;;;;16.01;58.58;100117.25;4451314;32;34839;-64
2022/11/02 00:38:25;;;;;;;8.32;4.35;;;;;;;15.89;58.73;100111.16;4451671;32;35004;-64
2022/11/02 00:40:52;;;;;;;7.53;3.90;;;;;;;15.86;58.85;100127.63;4450117;32;33380;-64
2022/11/02 00:43:20;;;;;;;8.43;4.35;;;;;;;15.82;58.90;100116.22;4438871;32;34948;-65
2022/11/02 00:45:48;;;;;;;8.15;4.22;;;;;;;15.88;58.85;100100.47;4439842;32;35110;-66
2022/11/02 00:48:16;;;;;;;7.20;3.15;;;;;;;15.87;58.81;100106.88;4448634;32;33733;-65
2022/11/02 00:50:43;;;;;;;8.85;4.70;;;;;;;15.81;58.96;100103.75;4445356;32;33712;-64
2022/11/02 00:53:12;;;;;;;11.48;6.35;;;;;;;15.78;59.08;100101.31;4437895;32;34116;-65
2022/11/02 00:55:42;;;;;;;7.28;3.80;;;;;;;15.50;59.67;100102.06;4437833;32;33159;-65
2022/11/02 00:58:10;;;;;;;5.78;3.22;;;;;;;15.72;59.11;100104.56;4440501;32;34500;-66
2022/11/02 01:00:37;;;;;;;4.12;2.87;;;;;;;15.70;58.95;100109.28;4445708;32;34515;-64
2022/11/02 01:03:05;;;;;;;9.07;4.70;;;;;;;15.69;59.04;100115.63;4442869;32;33513;-65
2022/11/02 01:05:32;;;;;;;7.15;5.28;;;;;;;15.70;59.10;100113.81;4439838;32;33111;-65
2022/11/02 01:08:00;;;;;;;9.63;4.93;;;;;;;15.70;59.16;100113.81;4434566;32;35227;-65
2022/11/02 01:10:28;;;;;;;9.07;4.15;;;;;;;15.75;59.05;100116.94;4436092;32;34141;-65
2022/11/02 01:12:56;;;;;;;5.62;3.70;;;;;;;15.76;58.92;100108.72;4431331;32;32585;-65
2022/11/02 01:15:23;;;;;;;7.20;3.90;;;;;;;15.71;59.25;100104.72;4444759;32;34238;-64
2022/11/02 01:17:51;;;;;;;6.32;4.32;;;;;;;15.70;59.05;100103.03;4439533;32;34074;-64
2022/11/02 01:20:19;;;;;;;5.43;4.00;;;;;;;15.59;59.45;100109.34;4445072;32;33527;-64
2022/11/02 01:22:46;;;;;;;11.43;4.65;;;;;;;15.52;59.52;100098.25;4446646;32;32622;-65
2022/11/02 01:25:14;;;;;;;8.95;4.47;;;;;;;15.67;59.16;100103.31;4437536;32;32628;-63
2022/11/02 01:27:41;;;;;;;12.37;5.47;;;;;;;15.71;58.96;100093.94;4449762;32;35323;-64
2022/11/02 01:30:09;;;;;;;7.10;4.87;;;;;;;15.74;59.03;100089.09;4443686;32;33603;-63
2022/11/02 01:32:37;;;;;;;7.93;3.58;;;;;;;15.76;58.99;100087.13;4444341;32;33576;-64
2022/11/02 01:35:05;;;;;;;8.02;3.70;;;;;;;15.76;59.08;100076.34;4448000;32;32933;-65
2022/11/02 01:37:32;;;;;;;6.37;2.97;;;;;;;15.83;58.99;100082.03;4445826;32;34734;-64
2022/11/02 01:40:00;;;;;;;4.85;3.22;;;;;;;15.79;59.11;100086.84;4447400;32;33392;-63
2022/11/02 01:42:27;;;;;;;7.87;4.95;;;;;;;15.81;59.22;100081.31;4446277;32;33967;-63
2022/11/02 01:44:55;;;;;;;7.12;4.57;;;;;;;15.82;59.09;100089.25;4444383;32;33893;-64
2022/11/02 01:47:45;;;;;;;5.97;3.97;;;;;;;15.82;59.15;100085.69;4443563;32;35033;-64
2022/11/02 01:50:20;;;;;;;6.75;4.85;;;;;;;15.71;59.57;100091.22;4431092;32;33455;-64
2022/11/02 01:52:48;;;;;;;10.27;4.50;;;;;;;15.83;59.35;100096.38;4432555;32;34194;-64
2022/11/02 01:55:28;;;;;;;5.75;3.97;;;;;;;15.87;59.24;100088.84;4443732;32;33737;-65
2022/11/02 01:58:09;;;;;;;9.02;4.68;;;;;;;15.87;59.32;100083.44;4448187;32;32740;-65
2022/11/02 02:00:38;;;;;;;9.70;5.85;;;;;;;15.66;59.88;100085.34;4444798;32;33437;-65
2022/11/02 02:03:17;;;;;;;11.88;4.93;;;;;;;15.68;60.00;100080.72;4441808;32;34743;-65
2022/11/02 02:05:58;;;;;;;10.00;6.22;;;;;;;15.73;59.94;100076.62;4438902;32;34143;-66
2022/11/02 02:08:27;;;;;;;9.63;5.68;;;;;;;15.65;60.45;100083.66;4446680;32;34060;-64
2022/11/02 02:10:57;;;;;;;8.82;4.70;;;;;;;15.78;60.30;100084.28;4447861;32;32286;-63
2022/11/02 02:13:26;;;;;;;7.25;5.32;;;;;;;15.91;60.01;100074.06;4441009;32;32364;-63
2022/11/02 02:16:09;;;;;;;10.07;3.53;;;;;;;15.98;59.73;100079.75;4446142;32;33970;-62
2022/11/02 02:18:45;;;;;;;11.43;6.32;;;;;;;15.99;59.64;100073.38;4450346;32;34111;-63
2022/11/02 02:21:50;;;;;;;8.43;5.22;;;;;;;15.92;59.82;100081.19;4443244;32;33901;-63
2022/11/02 02:24:40;;;;;;;11.32;6.80;;;;;;;15.88;59.93;100074.34;4448646;32;34988;-63
2022/11/02 02:27:14;;;;;;;8.68;4.68;;;;;;;15.56;60.90;100079.94;4443223;32;33786;-65
2022/11/02 02:30:06;;;;;;;7.93;4.93;;;;;;;15.55;60.75;100084.47;4434553;32;34090;-64
2022/11/02 02:32:44;;;;;;;6.35;3.45;;;;;;;15.71;60.04;100078.59;4442144;32;33821;-63
2022/11/02 02:35:24;;;;;;;8.18;4.68;;;;;;;15.82;59.61;100083.00;4445913;32;33021;-63
2022/11/02 02:37:59;;;;;;;8.40;5.15;;;;;;;15.80;59.78;100087.69;4447831;32;35187;-64
2022/11/02 02:40:39;;;;;;;4.47;3.30;;;;;;;15.49;60.93;100101.22;4440820;32;34354;-63
2022/11/02 02:43:09;;;;;;;7.68;4.78;;;;;;;15.63;59.96;100102.66;4452227;32;32201;-65
2022/11/02 02:45:38;;;;;;;11.70;6.70;;;;;;;15.78;59.34;100108.56;4438949;32;32871;-65
2022/11/02 02:48:14;;;;;;;4.37;3.22;;;;;;;15.83;58.92;100104.47;4443711;32;34167;-64
2022/11/02 02:50:48;;;;;;;9.68;5.78;;;;;;;15.79;58.82;100108.44;4443435;32;35178;-63
2022/11/02 02:53:21;;;;;;;8.05;3.72;;;;;;;15.79;58.77;100124.63;4447849;32;33589;-65
2022/11/02 02:55:50;;;;;;;4.32;2.67;;;;;;;15.80;58.80;100126.34;4448975;32;34773;-62
2022/11/02 02:58:21;;;;;;;14.10;5.97;;;;;;;15.78;58.98;100119.38;4448540;32;34090;-64
2022/11/02 03:00:51;;;;;;;7.28;5.12;;;;;;;15.82;58.81;100131.56;4442388;32;33868;-64
2022/11/02 03:03:23;;;;;;;7.93;4.12;;;;;;;15.81;58.50;100127.19;4433798;32;34454;-64
2022/11/02 03:06:02;;;;;;;5.95;4.00;;;;;;;15.67;59.11;100136.53;4434505;32;34338;-66
2022/11/02 03:08:31;;;;;;;10.43;4.97;;;;;;;15.59;59.72;100133.62;4443501;32;34221;-64
2022/11/02 03:11:06;;;;;;;7.82;3.83;;;;;;;15.72;59.36;100130.72;4445844;32;34087;-67
2022/11/02 03:13:44;;;;;;;9.38;3.90;;;;;;;15.79;58.78;100131.84;4438382;32;34509;-67
2022/11/02 03:16:33;;;;;;;6.53;4.32;;;;;;;15.78;58.97;100143.66;4445195;32;33762;-65
2022/11/02 03:19:16;;;;;;;7.12;4.10;;;;;;;15.75;58.95;100141.22;4427132;32;32442;-65
2022/11/02 03:21:44;;;;;;;6.07;4.20;;;;;;;15.63;59.62;100136.91;4441841;32;35070;-65
2022/11/02 03:24:32;;;;;;;9.88;5.53;;;;;;;15.60;59.19;100141.59;4433119;32;32592;-65
2022/11/02 03:27:12;;;;;;;8.25;4.22;;;;;;;15.61;59.23;100148.69;4432615;32;33598;-66
2022/11/02 03:30:03;;;;;;;9.85;5.37;;;;;;;15.57;59.33;100152.66;4429466;32;32998;-65
2022/11/02 03:32:37;;;;;;;6.45;4.12;;;;;;;15.58;59.64;100159.75;4446581;32;33918;-65
2022/11/02 03:35:11;;;;;;;6.65;4.03;;;;;;;15.66;59.57;100155.50;4436256;32;32517;-65
2022/11/02 03:37:46;;;;;;;8.57;5.23;;;;;;;15.61;59.93;100148.69;4441034;32;32653;-65
2022/11/02 03:40:18;;;;;;;8.40;5.03;;;;;;;15.70;60.22;100141.66;4429753;32;34092;-65
2022/11/02 03:42:47;;;;;;;9.57;5.12;;;;;;;15.73;60.08;100144.06;4447009;32;33947;-66
2022/11/02 03:45:17;;;;;;;13.52;4.75;;;;;;;15.72;60.58;100138.81;4443510;32;33507;-64
2022/11/02 03:47:52;;;;;;;10.27;5.87;;;;;;;15.55;61.57;100129.50;4445683;32;33204;-65
2022/11/02 03:50:22;;;;;;;8.38;5.12;;;;;;;15.78;60.78;100136.41;4437697;32;33994;-65
2022/11/02 03:52:56;;;;;;;8.77;5.35;;;;;;;15.83;60.85;100141.41;4442091;32;34082;-63
2022/11/02 03:55:30;;;;;;;12.32;7.57;;;;;;;15.89;60.72;100143.56;4447098;32;34190;-65
2022/11/02 03:57:58;;;;;;;5.60;3.78;;;;;;;15.93;60.52;100144.97;4435505;32;34011;-64
2022/11/02 04:00:31;;;;;;;6.32;4.35;;;;;;;15.91;60.70;100146.09;4440495;32;32465;-67
2022/11/02 04:03:06;;;;;;;9.35;5.05;;;;;;;15.96;60.85;100154.63;4437987;32;34000;-64
2022/11/02 04:05:35;;;;;;;9.02;5.97;;;;;;;16.01;60.74;100163.16;4436440;32;34600;-67
2022/11/02 04:08:21;;;;;;;10.60;6.35;;;;;;;16.01;60.59;100164.00;4440983;32;34798;-67
2022/11/02 04:16:23;;;;;;;10.43;5.70;;;;;;;15.98;60.77;100169.69;4435361;32;35216;-65
2022/11/02 04:25:14;;;;;;;11.45;6.62;;;;;;;16.01;60.83;100177.50;4445565;32;35320;-64
2022/11/02 04:27:17;;;;;;;10.20;5.68;;;;;;;16.05;60.93;100180.78;4445098;32;33786;-64
2022/11/02 04:29:48;;;;;;;10.82;5.82;;;;;;;16.04;60.89;100181.78;4441272;32;33939;-64
2022/11/02 04:35:07;;;;;;;10.02;5.32;;;;;;;16.09;61.00;100189.47;4421801;32;35173;-64
2022/11/02 04:40:25;;;;;;;5.45;3.55;;;;;;;16.10;60.83;100183.06;4438778;32;33573;-64
2022/11/02 04:42:53;;;;;;;6.28;4.65;;;;;;;16.15;60.70;100181.66;4441662;32;34041;-64
2022/11/02 04:45:21;;;;;;;10.80;6.18;;;;;;;16.05;61.15;100189.75;4439769;32;34197;-64
2022/11/02 04:47:49;;;;;;;8.45;4.82;;;;;;;16.15;60.87;100184.38;4438913;32;34841;-64
2022/11/02 04:50:17;;;;;;;10.95;5.65;;;;;;;16.12;60.99;100187.34;4442825;32;33646;-63
2022/11/02 04:52:44;;;;;;;7.43;4.60;;;;;;;16.01;61.16;100187.47;4447240;32;35237;-65
2022/11/02 04:55:13;;;;;;;9.95;6.28;;;;;;;15.50;63.24;100191.09;4438600;32;34157;-63
2022/11/02 04:57:44;;;;;;;14.23;6.07;;;;;;;16.01;61.55;100193.69;4443686;32;33329;-64
2022/11/02 05:00:12;;;;;;;6.47;4.12;;;;;;;16.17;60.89;100187.78;4448222;32;35079;-64
2022/11/02 05:02:40;;;;;;;6.78;3.78;;;;;;;15.93;61.76;100187.31;4441947;32;35252;-65
2022/11/02 05:05:11;;;;;;;9.60;4.75;;;;;;;16.00;61.49;100193.84;4450233;32;34757;-65
2022/11/02 05:07:38;;;;;;;10.75;6.57;;;;;;;16.22;60.71;100195.47;4443204;32;32747;-69
2022/11/02 05:10:07;;;;;;;11.60;6.10;;;;;;;16.19;60.73;100196.59;4447308;32;33720;-66
2022/11/02 05:12:35;;;;;;;12.15;7.95;;;;;;;16.21;60.68;100194.62;4443214;32;35188;-67
2022/11/02 05:15:03;;;;;;;10.80;6.10;;;;;;;16.28;60.46;100192.22;4439011;32;35111;-64
2022/11/02 05:17:32;;;;;;;12.07;6.25;;;;;;;16.09;60.86;100189.47;4436977;32;33320;-66
2022/11/02 05:19:59;;;;;;;11.55;6.75;;;;;;;16.05;60.99;100196.97;4447782;32;32818;-65
2022/11/02 05:22:27;;;;;;;6.50;3.58;;;;;;;15.85;61.93;100193.37;4448543;32;34274;-65
2022/11/02 05:24:54;;;;;;;8.23;5.70;;;;;;;15.94;61.75;100197.09;4452323;32;35144;-66
2022/11/02 05:27:22;;;;;;;9.32;5.07;;;;;;;15.80;62.17;100193.81;4444392;32;34683;-64
2022/11/02 05:29:49;;;;;;;8.40;4.18;;;;;;;15.84;62.17;100197.94;4439674;32;34777;-65
2022/11/02 05:32:17;;;;;;;7.78;4.20;;;;;;;15.93;61.89;100198.97;4443347;32;33909;-64
2022/11/02 05:34:45;;;;;;;15.10;4.53;;;;;;;15.94;61.93;100205.22;4444538;32;32928;-64
2022/11/02 05:37:13;;;;;;;9.77;3.65;;;;;;;15.65;62.88;100199.69;4443056;32;34743;-64
2022/11/02 05:39:41;;;;;;;12.00;6.22;;;;;;;15.37;64.23;100200.25;4447037;32;35001;-65
2022/11/02 05:42:14;;;;;;;11.25;6.80;;;;;;;15.71;63.08;100191.06;4449318;32;33972;-64
2022/11/02 05:44:42;;;;;;;8.68;6.37;;;;;;;15.63;63.43;100197.09;4440587;32;32949;-66
2022/11/02 05:47:09;;;;;;;8.95;5.97;;;;;;;15.84;62.74;100195.22;4442949;32;34767;-65
2022/11/02 05:49:37;;;;;;;7.25;4.90;;;;;;;15.67;63.43;100187.81;4442488;32;34009;-69
2022/11/02 05:52:04;;;;;;;7.28;3.37;;;;;;;15.44;64.50;100189.81;4444580;32;32361;-67
2022/11/02 05:54:32;;;;;;;8.45;5.53;;;;;;;15.46;64.43;100186.97;4447102;32;32811;-65
2022/11/02 05:56:59;;;;;;;6.10;4.75;;;;;;;15.67;63.86;100187.81;4447348;32;33532;-68
2022/11/02 05:59:27;;;;;;;7.60;5.95;;;;;;;15.77;63.24;100190.53;4441423;32;34970;-66
2022/11/02 06:01:54;;;;;;;9.48;5.47;;;;;;;15.73;63.61;100184.56;4445260;32;35265;-67
2022/11/02 06:04:22;;;;;;;10.07;5.60;;;;;;;15.74;63.65;100185.41;4438940;32;34687;-65
2022/11/02 06:06:50;;;;;;;9.10;7.18;;;;;;;15.97;62.75;100186.03;4446774;32;33689;-64
2022/11/02 06:09:17;;;;;;;11.75;7.53;;;;;;;16.04;62.46;100188.03;4445052;32;34497;-65
2022/11/02 06:11:45;;;;;;;6.45;4.50;;;;;;;16.09;62.54;100186.78;4444998;32;33877;-64
2022/11/02 06:14:12;;;;;;;8.90;5.55;;;;;;;15.13;65.66;100186.25;4453040;32;34146;-64
2022/11/02 06:16:40;;;;;;;13.02;5.57;;;;;;;15.41;64.53;100194.59;4435453;32;33145;-63
2022/11/02 06:19:07;;;;;;;9.80;6.37;;;;;;;15.24;65.10;100193.37;4442744;32;34027;-64
2022/11/02 06:21:35;;;;;;;8.25;5.32;;;;;;;15.37;64.48;100202.94;4439024;32;34985;-64
2022/11/02 06:24:02;;;;;;;9.27;4.50;;;;;;;15.72;63.25;100217.06;4448075;32;34192;-62
2022/11/02 06:26:30;;;;;;;10.32;7.60;;;;;;;15.90;62.34;100210.03;4441992;32;33580;-63
2022/11/02 06:28:58;;;;;;;15.88;7.45;;;;;;;15.95;62.17;100215.84;4451258;32;35117;-64
2022/11/02 06:31:26;;;;;;;14.48;6.90;;;;;;;15.91;62.53;100218.97;4439339;32;34132;-68
2022/11/02 06:33:53;;;;;;;10.80;7.80;;;;;;;16.04;62.49;100216.87;4447065;32;34441;-65
2022/11/02 06:36:21;;;;;;;12.07;6.97;;;;;;;16.14;62.15;100216.91;4447698;32;33688;-67
2022/11/02 06:38:49;;;;;;;10.30;4.62;;;;;;;16.09;62.47;100228.13;4448913;32;33956;-62
2022/11/02 06:41:17;;;;;;;5.93;4.03;;;;;;;16.15;62.45;100229.44;4441659;32;34197;-64
2022/11/02 06:43:45;;;;;;;8.43;4.40;;;;;;;16.23;62.22;100238.53;4446146;32;35226;-63
2022/11/02 06:46:12;;;;;;;10.55;6.68;;;;;;;16.22;62.43;100244.94;4445420;32;33544;-63
2022/11/02 06:48:40;;;;;;;8.15;4.87;;;;;;;16.35;62.22;100249.22;4440668;32;35016;-62
2022/11/02 06:51:07;;;;;;;9.77;5.65;;;;;;;16.45;61.72;100259.03;4444740;32;32865;-63
2022/11/02 06:53:35;;;;;;;12.00;6.70;;;;;;;16.41;61.96;100246.81;4443004;32;34044;-62
2022/11/02 06:56:03;;;;;;;15.63;7.93;;;;;;;16.49;61.95;100244.25;4446718;32;33518;-62
2022/11/02 06:58:30;;;;;;;9.63;6.30;;;;;;;16.54;61.85;100236.59;4439915;32;33658;-63
2022/11/02 07:01:00;;;;;;;8.80;6.32;;;;;;;16.57;61.90;100231.91;4445579;32;34022;-63
2022/11/02 07:03:29;;;;;;;10.43;4.82;;;;;;;16.51;62.17;100228.75;4445283;32;32623;-62
2022/11/02 07:05:57;;;;;;;12.85;7.68;;;;;;;16.56;62.20;100232.88;4437677;32;33384;-62
2022/11/02 07:08:26;;;;;;;8.77;6.12;;;;;;;16.57;62.44;100237.31;4444843;32;33637;-62
2022/11/02 07:10:54;;;;;;;12.27;7.53;;;;;;;16.61;62.48;100234.16;4443050;32;32805;-63
2022/11/02 07:13:21;;;;;;;8.38;5.87;;;;;;;16.56;62.72;100238.28;4443990;32;35235;-61
2022/11/02 07:15:53;;;;;;;9.05;4.87;;;;;;;16.54;62.89;100235.75;4452085;32;34700;-63
2022/11/02 07:18:21;;;;;;;10.48;5.25;;;;;;;16.27;63.86;100228.28;4448257;32;33909;-62
2022/11/02 07:20:49;;;;;;;8.93;6.37;;;;;;;16.71;62.36;100228.78;4448204;32;34005;-62
2022/11/02 07:23:16;;;;;;;9.10;7.07;;;;;;;16.82;61.95;100241.31;4429394;32;33541;-64
2022/11/02 07:25:44;;;;;;;11.25;5.72;;;;;;;16.88;61.83;100238.88;4453071;32;34803;-61
2022/11/02 07:28:11;;;;;;;8.48;5.80;;;;;;;16.88;61.64;100233.47;4444289;32;33935;-63
2022/11/02 07:30:39;;;;;;;12.52;5.93;;;;;;;16.84;61.68;100234.78;4448322;32;33882;-62
2022/11/02 07:33:07;;;;;;;12.37;7.68;;;;;;;16.80;61.98;100238.75;4440921;32;34105;-62
2022/11/02 07:35:34;;;;;;;8.52;6.03;;;;;;;16.66;62.59;100239.12;4449840;32;34663;-63
2022/11/02 07:38:04;;;;;;;9.45;6.10;;;;;;;16.28;63.89;100241.69;4433416;32;33261;-63
2022/11/02 07:40:34;;;;;;;10.75;6.60;;;;;;;16.53;63.56;100245.69;4445980;32;33968;-61
2022/11/02 07:43:02;;;;;;;17.77;8.15;;;;;;;16.17;64.98;100254.44;4446854;32;34332;-64
2022/11/02 07:45:31;;;;;;;13.43;6.03;;;;;;;16.11;65.37;100245.03;4450975;32;32537;-63
2022/11/02 07:47:59;;;;;;;11.68;7.05;;;;;;;16.61;64.13;100246.84;4438147;32;33930;-61
2022/11/02 07:50:26;;;;;;;11.55;5.70;;;;;;;16.20;65.23;100256.84;4444149;32;33798;-63
2022/11/02 07:52:56;;;;;;;23.20;9.80;;;;;;;16.63;64.30;100252.94;4446732;32;33101;-63
2022/11/02 07:55:26;;;;;;;17.20;8.27;;;;;;;16.71;63.68;100261.19;4448277;32;33532;-62
2022/11/02 07:57:58;;;;;;;11.20;7.40;;;;;;;16.56;64.13;100247.25;4448215;32;34421;-63
2022/11/02 08:00:37;;;;;;;6.37;4.95;;;;;;;16.30;64.11;100257.72;4443531;32;33045;-62
2022/11/02 08:03:06;;;;;;;9.75;6.12;;;;;;;16.76;62.57;100250.87;4444768;32;35351;-62
2022/11/02 08:05:36;;;;;;;11.45;7.28;;;;;;;16.69;62.90;100244.25;4445533;32;35244;-63
2022/11/02 08:08:05;;;;;;;10.35;6.53;;;;;;;16.71;62.92;100248.53;4449357;32;33834;-63
2022/11/02 08:10:34;;;;;;;10.68;6.65;;;;;;;16.61;63.50;100246.84;4448929;32;32727;-62
2022/11/02 08:13:13;;;;;;;11.45;6.75;;;;;;;16.64;63.13;100251.97;4448681;32;33672;-63
2022/11/02 08:15:41;;;;;;;16.75;7.70;;;;;;;16.32;64.34;100255.75;4446463;32;34838;-63
2022/11/02 08:18:16;;;;;;;12.73;7.20;;;;;;;16.45;63.96;100244.69;4448474;32;32285;-64
2022/11/02 08:20:47;;;;;;;14.48;7.90;;;;;;;16.62;63.51;100246.69;4443484;32;34208;-63
2022/11/02 08:23:18;;;;;;;22.55;7.53;;;;;;;15.95;65.62;100242.00;4443702;32;34152;-64
2022/11/02 08:25:47;;;;;;;11.15;6.25;;;;;;;16.34;64.48;100248.38;4445611;32;33979;-63
2022/11/02 08:28:18;;;;;;;25.55;8.95;;;;;;;16.29;64.68;100246.06;4449064;32;33798;-64
2022/11/02 08:30:46;;;;;;;11.73;6.22;;;;;;;15.86;66.16;100250.91;4450134;32;33973;-63
2022/11/02 08:33:15;;;;;;;10.25;5.78;;;;;;;16.39;64.86;100251.50;4443391;32;35054;-63
2022/11/02 08:35:44;;;;;;;10.30;7.30;;;;;;;16.35;64.50;100252.78;4443917;32;33669;-63
2022/11/02 08:38:13;;;;;;;11.10;6.82;;;;;;;16.10;65.85;100250.59;4443251;32;32664;-63
2022/11/02 08:40:41;;;;;;;6.45;3.90;;;;;;;15.95;66.39;100250.09;4448354;32;35608;-64
2022/11/02 08:43:11;;;;;;;12.43;8.20;;;;;;;15.99;66.65;100255.09;4447029;32;33581;-63
2022/11/02 08:45:40;;;;;;;12.65;7.90;;;;;;;15.95;67.08;100255.50;4441943;32;36125;-62
2022/11/02 08:48:27;;;;;;;38.50;7.68;;;;;;;16.51;65.05;100249.53;4431987;32;32327;-64
2022/11/02 08:50:55;;;;;;;17.10;7.90;;;;;;;16.49;65.56;100254.22;4447693;32;33066;-64
2022/11/02 08:53:22;;;;;;;16.33;9.93;;;;;;;16.82;63.99;100250.28;4446704;32;34183;-63
2022/11/02 08:55:50;;;;;;;7.68;4.95;;;;;;;16.46;65.21;100238.28;4447826;32;34677;-63
2022/11/02 08:58:18;;;;;;;9.43;5.45;;;;;;;17.07;63.51;100238.00;4442503;32;32454;-64
2022/11/02 09:00:45;;;;;;;9.30;5.75;;;;;;;17.02;64.11;100242.19;4447993;32;35071;-63
2022/11/02 09:03:14;;;;;;;8.80;5.20;;;;;;;17.09;63.85;100235.19;4443283;32;33485;-64
2022/11/02 09:05:43;;;;;;;15.35;9.55;;;;;;;17.35;63.33;100233.56;4443813;32;35177;-63
2022/11/02 09:08:15;;;;;;;10.18;7.25;;;;;;;17.35;62.78;100230.84;4438808;32;34645;-63
2022/11/02 09:10:48;;;;;;;12.95;7.22;;;;;;;17.42;62.91;100231.13;4447656;32;34631;-64
2022/11/02 09:13:19;;;;;;;13.82;7.53;;;;;;;17.19;63.86;100231.44;4443702;32;33956;-62
2022/11/02 09:15:52;;;;;;;13.25;6.82;;;;;;;17.69;62.53;100233.87;4449891;32;32081;-61
2022/11/02 09:18:20;;;;;;;8.05;5.78;;;;;;;17.73;62.24;100239.84;4446679;32;34011;-63
2022/11/02 09:20:48;;;;;;;12.63;7.47;;;;;;;17.12;63.93;100232.19;4447431;32;34191;-64
2022/11/02 09:23:16;;;;;;;10.15;5.95;;;;;;;17.60;62.35;100233.91;4441923;32;32959;-62
2022/11/02 09:25:44;;;;;;;11.70;7.03;;;;;;;17.61;61.58;100225.62;4441969;32;33594;-63
2022/11/02 09:28:14;;;;;;;10.95;6.43;;;;;;;17.35;62.91;100227.28;4441192;32;35063;-62
2022/11/02 09:30:42;;;;;;;12.23;6.93;;;;;;;17.74;61.57;100228.00;4448222;32;34220;-64
2022/11/02 09:33:09;;;;;;;15.40;8.82;;;;;;;17.86;61.17;100229.56;4442541;32;34059;-62
2022/11/02 09:35:39;;;;;;;13.62;8.35;;;;;;;17.69;61.44;100230.31;4443014;32;31914;-64
2022/11/02 09:38:06;;;;;;;12.90;6.95;;;;;;;17.72;61.84;100227.31;4439410;32;34029;-62
2022/11/02 09:40:59;;;;;;;16.20;7.95;;;;;;;17.81;61.75;100226.44;4442378;32;32827;-63
2022/11/02 09:44:10;;;;;;;16.12;6.47;;;;;;;17.81;61.92;100231.00;4448826;32;31682;-64
2022/11/02 09:46:43;;;;;;;14.18;7.40;;;;;;;17.88;61.22;100229.38;4420192;32;34739;-62
2022/11/02 09:49:19;;;;;;;8.98;5.45;;;;;;;17.60;62.24;100225.78;4437732;32;32786;-65
2022/11/02 09:51:50;;;;;;;23.58;8.65;;;;;;;17.78;61.59;100226.72;4431523;32;33371;-64
2022/11/02 09:54:24;;;;;;;11.60;5.82;;;;;;;18.07;60.74;100228.44;4446928;32;33977;-63
2022/11/02 09:56:55;;;;;;;13.00;6.00;;;;;;;17.88;60.99;100222.16;4445599;32;33562;-62
2022/11/02 09:59:24;;;;;;;11.12;5.60;;;;;;;18.25;60.11;100221.22;4436903;32;33871;-62
2022/11/02 10:02:03;;;;;;;13.30;7.03;;;;;;;18.10;60.01;100220.84;4450783;32;33936;-64
2022/11/02 10:04:46;;;;;;;20.15;7.87;;;;;;;17.82;61.19;100222.75;4450891;32;33908;-63
2022/11/02 10:07:17;;;;;;;18.92;9.13;;;;;;;17.76;61.32;100226.00;4451436;32;34630;-63
2022/11/02 10:09:52;;;;;;;12.45;8.32;;;;;;;17.77;61.58;100216.06;4438628;32;34862;-63
2022/11/02 10:12:47;;;;;;;11.85;7.53;;;;;;;17.84;61.98;100226.13;4454973;32;34175;-63
2022/11/02 10:15:19;;;;;;;15.85;8.88;;;;;;;17.88;62.27;100229.38;4451538;32;34065;-65
2022/11/02 10:17:52;;;;;;;12.37;9.02;;;;;;;18.23;61.45;100215.06;4438184;32;33074;-64
2022/11/02 10:20:38;;;;;;;12.48;6.75;;;;;;;17.95;62.72;100216.13;4438212;32;33568;-63
2022/11/02 10:23:07;;;;;;;14.85;8.07;;;;;;;18.44;60.76;100220.22;4446266;32;34028;-63
2022/11/02 10:25:35;;;;;;;13.23;6.75;;;;;;;18.56;60.28;100208.16;4446812;32;34621;-63
2022/11/02 10:28:13;;;;;;;9.50;6.93;;;;;;;18.30;60.46;100210.78;4444854;32;32517;-64
2022/11/02 10:30:42;;;;;;;14.98;10.05;;;;;;;18.64;59.99;100212.78;4435578;32;35159;-65
2022/11/02 10:33:13;;;;;;;17.58;9.13;;;;;;;18.61;59.90;100208.53;4437321;32;33991;-63
2022/11/02 10:36:19;;;;;;;15.70;7.57;;;;;;;18.74;59.90;100219.00;4438762;32;34113;-63
2022/11/02 10:39:08;;;;;;;11.15;6.28;;;;;;;18.88;59.69;100216.78;4430115;32;32248;-63
2022/11/02 10:41:47;;;;;;;10.88;6.72;;;;;;;18.27;62.16;100213.78;4445285;32;33859;-63
2022/11/02 10:44:18;;;;;;;12.52;6.80;;;;;;;18.43;61.90;100215.81;4437230;32;33774;-64
2022/11/02 10:47:14;;;;;;;13.35;9.05;;;;;;;18.50;61.90;100211.47;4449869;32;34236;-65
2022/11/02 10:49:45;;;;;;;;;;;;;;;18.53;61.28;100211.16;4436968;32;34090;-64
2022/11/02 10:52:14;;;;;;;15.20;9.10;;;;;;;19.12;59.37;100216.94;4447494;32;33078;-64
2022/11/02 10:54:42;;;;;;;12.73;7.10;;;;;;;19.11;59.41;100206.28;4451675;32;35151;-65
2022/11/02 10:57:19;;;;;;;14.23;8.90;;;;;;;19.45;58.67;100211.72;4451823;32;33715;-64
2022/11/02 11:00:23;;;;;;;13.57;6.43;;;;;;;19.33;58.54;100210.31;4454927;32;33713;-63
2022/11/02 11:03:14;;;;;;;18.27;7.95;;;;;;;19.18;58.42;100202.75;4448250;32;35036;-65
2022/11/02 11:05:59;;;;;;;13.18;9.45;;;;;;;19.43;57.88;100208.34;4444009;32;33980;-64
2022/11/02 11:08:38;;;;;;;10.82;6.40;;;;;;;18.94;59.36;100210.69;4450766;32;33114;-63
2022/11/02 11:11:12;;;;;;;14.57;6.37;;;;;;;18.75;59.42;100209.87;4433522;32;32748;-66
2022/11/02 11:13:45;;;;;;;16.87;10.38;;;;;;;18.96;59.17;100208.69;4443251;32;33795;-63
2022/11/02 11:16:37;;;;;;;11.07;7.70;;;;;;;19.47;58.17;100207.00;4446535;32;34331;-65
2022/11/02 11:19:06;;;;;;;13.30;7.60;;;;;;;19.08;58.38;100205.56;4433765;32;33087;-64
2022/11/02 11:21:54;;;;;;;15.30;8.98;;;;;;;19.12;57.97;100211.53;4447166;32;34794;-63
2022/11/02 11:24:30;;;;;;;16.12;10.23;;;;;;;19.11;58.50;100211.69;4441564;32;33791;-63
2022/11/02 11:27:10;;;;;;;14.80;9.98;;;;;;;19.32;57.91;100209.44;4435985;32;32982;-63
2022/11/02 11:29:39;;;;;;;15.52;9.85;;;;;;;19.33;58.28;100219.31;4446534;32;34735;-63
2022/11/02 11:32:16;;;;;;;15.75;9.50;;;;;;;19.67;56.98;100221.22;4443619;32;34678;-65
2022/11/02 11:34:49;;;;;;;16.48;9.80;;;;;;;19.42;57.30;100222.91;4441203;32;35059;-65
2022/11/02 11:37:17;;;;;;;15.43;8.70;;;;;;;19.38;57.69;100229.69;4436473;32;32514;-66
2022/11/02 11:39:45;;;;;;;16.08;8.73;;;;;;;19.35;57.71;100222.69;4449242;32;34251;-64
2022/11/02 11:42:18;;;;;;;11.27;7.82;;;;;;;19.36;58.24;100224.41;4447974;32;34512;-63
2022/11/02 11:44:53;;;;;;;13.80;7.93;;;;;;;19.80;56.83;100218.06;4428676;32;32157;-64
2022/11/02 11:47:25;;;;;;;18.85;9.40;;;;;;;19.63;57.44;100222.53;4448090;32;34138;-62
2022/11/02 11:49:54;;;;;;;17.30;11.23;;;;;;;19.62;57.29;100221.69;4448489;32;34950;-64
2022/11/02 11:52:41;;;;;;;8.13;6.57;;;;;;;19.51;57.40;100213.81;4444213;32;33596;-63
2022/11/02 11:55:24;;;;;;;13.02;8.73;;;;;;;19.92;56.67;100217.59;4448041;32;34945;-63
2022/11/02 11:58:10;;;;;;;15.70;8.05;;;;;;;20.18;55.82;100213.97;4434992;32;34061;-64
2022/11/02 12:00:38;;;;;;;13.77;8.25;;;;;;;19.22;57.92;100209.56;4442698;32;32869;-64